Date,TemperatureHighF,TemperatureAvgF,TemperatureLowF,DewpointHighF,DewpointAvgF,DewpointLowF,HumidityHigh,HumidityAvg,HumidityLow,PressureMaxIn,PressureMinIn,WindSpeedMaxMPH,WindSpeedAvgMPH,GustSpeedMaxMPH,PrecipitationSumIn
2013-4-1,45.3,38.4,33.1,26.6,24.1,21.7,75,57,41,29.88,29.62,21,7,22,0.04
2013-4-2,44.6,39.0,34.5,39.7,29.5,21.9,97,70,49,29.88,29.62,20,4,20,0.04
2013-4-3,45.0,41.4,39.4,43.9,40.4,37.5,97,96,93,29.74,29.59,14,4,14,0.04
2013-4-4,46.2,40.8,37.2,37.7,35.0,32.7,93,80,66,29.85,29.71,10,1,10,0.04
2013-4-5,44.1,40.5,35.8,41.2,37.1,32.7,96,88,74,29.85,29.62,16,3,16,0.00
2013-4-6,51.6,44.9,40.8,41.5,37.3,31.8,96,76,55,29.97,29.71,16,4,16,0.04
2013-4-7,47.5,42.3,37.4,39.3,34.0,28.4,89,73,55,30.00,29.91,12,3,12,0.00
2013-4-8,52.3,44.9,38.3,32.1,25.7,19.8,62,47,35,29.94,29.80,15,2,15,0.00
2013-4-9,52.3,46.8,41.5,41.0,37.6,32.1,88,71,54,29.83,29.77,13,4,13,0.00
2013-4-10,57.4,49.2,44.1,47.8,42.4,36.2,97,79,53,29.88,29.74,15,3,15,0.00
2013-4-11,65.7,54.4,38.3,43.5,39.2,33.9,89,59,37,29.94,29.83,19,3,19,0.00
2013-4-12,65.1,56.5,50.5,52.2,45.6,41.5,89,68,45,29.85,29.74,21,3,21,0.00
2013-4-13,65.3,55.6,46.9,47.2,41.9,34.8,90,63,36,30.21,29.83,37,6,37,0.00
2013-4-14,66.2,55.4,41.7,44.3,35.6,28.3,85,52,27,30.33,30.21,21,4,21,0.00
2013-4-15,63.9,54.0,38.8,43.4,35.2,30.6,87,52,33,30.36,30.24,10,2,10,0.00
2013-4-16,67.8,56.2,39.7,40.3,33.4,28.1,81,46,24,30.30,30.21,16,3,16,0.00
2013-4-17,71.4,58.6,42.3,43.7,37.6,31.1,79,50,23,30.27,30.18,10,2,10,0.00
2013-4-18,73.8,62.5,45.9,46.7,39.4,32.0,85,47,23,30.18,30.06,11,2,11,0.00
2013-4-19,75.6,63.8,46.4,46.2,38.0,32.3,78,43,21,30.12,30.00,12,2,12,0.00
2013-4-20,77.0,63.1,50.5,60.4,47.0,39.1,96,60,28,30.12,30.03,15,3,15,0.00
2013-4-21,71.2,62.5,53.1,48.6,42.6,37.9,72,50,33,30.12,29.97,15,5,15,0.00
2013-4-22,72.5,62.4,50.2,45.9,39.9,35.1,67,45,27,30.00,29.91,15,4,15,0.00
2013-4-23,72.5,63.3,51.1,52.2,46.9,42.7,82,57,35,30.21,30.00,10,2,10,0.00
2013-4-24,75.9,66.9,54.5,48.8,43.7,36.4,70,46,26,30.33,30.21,16,2,16,0.00
2013-4-25,79.0,67.0,49.8,49.5,43.7,37.2,81,47,23,30.27,30.15,13,2,13,0.00
2013-4-26,81.9,69.8,51.3,50.6,43.3,34.7,82,43,21,30.15,29.77,14,2,14,0.00
2013-4-27,78.4,71.0,61.7,50.1,45.5,40.0,50,40,31,29.77,29.71,12,3,12,0.00
2013-4-28,76.6,68.9,59.0,56.0,51.1,45.1,83,55,37,30.00,29.77,11,2,11,0.00
2013-4-29,82.0,71.3,57.6,54.3,49.4,45.0,81,49,30,30.09,30.00,12,2,12,0.00
2013-4-30,85.1,73.5,59.2,57.3,51.1,44.1,79,48,29,30.12,30.00,9,2,9,0.00